Sunday, August 19, 2018, 12:26 AM GMT
Back to Local

CWTG, Pointe-Des-Monts , Que.

Location: , , Canada Lat: 49.317
Local Time: 12:26 AM GMT ( 0:26 GMT) Lon: -67.383
Time Zone: GMT Elev: 16 ft

Show me the last for .
Show Coded

Time T Td Feel RH Dir Speed Gust Alt SLP Vis Weather Sky Remarks
2018-08-18 22:00 63 - - 0 70° 2 - - 29.94 0 None
2018-08-18 21:00 64 - - 0 60° 3 - - 29.93 0 None
2018-08-18 20:00 64 - - 0 60° 5 - - 29.93 0 None
2018-08-18 19:00 64 - - 0 60° 5 - - 29.93 0 None
2018-08-18 18:00 63 - - 0 60° 8 - - 29.92 0 None
2018-08-18 17:00 63 - - 0 60° 9 - - 29.92 0 None
2018-08-18 16:00 62 - - 0 50° 10 - - 29.93 0 None
2018-08-18 15:00 63 - - 0 50° 10 - - 29.93 0 None
2018-08-18 13:00 61 - - 0 60° 7 - - 29.92 0 None
2018-08-18 12:00 59 - - 0 60° 9 - - 29.92 0 None
2018-08-18 11:00 58 - - 0 20° 1 - - 29.91 0 None
2018-08-18 10:00 56 - - 0 40° 5 - - 29.90 0 None
2018-08-18 09:00 56 - - 0 280° 2 - - 29.89 0 None
2018-08-18 08:00 56 - - 0 270° 8 - - 29.88 0 None
2018-08-18 07:00 56 - - 0 260° 10 - - 29.89 0 None
2018-08-18 06:00 57 - - 0 260° 13 - - 29.88 0 None
2018-08-18 05:00 57 - - 0 220° 10 - - 29.89 0 None
2018-08-18 04:00 58 - - 0 270° 9 - - 29.89 0 None
2018-08-18 03:00 57 - - 0 250° 10 - - 29.90 0 None
2018-08-18 01:00 57 - - 0 270° 12 - - 29.91 0 None

Support USWX by starting your Amazon purchase here.